Time,TemperatureF,DewpointF,PressureIn,WindDirection,WindDirectionDegrees,WindSpeedMPH,WindSpeedGustMPH,Humidity,HourlyPrecipIn,Conditions,Clouds,dailyrainin,SoftwareType,DateUTC
2016-12-05 00:03:00,44.8,43.5,30.09,North,349,1.0,7.0,95,0.00,,,0.00,Wunderground v.1.15,2016-12-05 08:03:00,
2016-12-05 00:08:00,44.7,43.4,30.09,North,349,1.0,7.0,95,0.00,,,0.00,Wunderground v.1.15,2016-12-05 08:08:00,
2016-12-05 00:14:00,44.5,43.2,30.09,North,349,1.0,7.0,95,0.00,,,0.00,Wunderground v.1.15,2016-12-05 08:14:00,
2016-12-05 00:19:00,44.2,42.9,30.09,NNW,334,1.0,7.0,95,0.00,,,0.00,Wunderground v.1.15,2016-12-05 08:19:00,
2016-12-05 00:24:00,44.3,43.2,30.08,NNW,333,1.0,7.0,96,0.00,,,0.00,Wunderground v.1.15,2016-12-05 08:24:00,
2016-12-05 00:29:00,44.5,43.4,30.08,NNW,333,1.0,7.0,96,0.00,,,0.00,Wunderground v.1.15,2016-12-05 08:29:00,
2016-12-05 00:34:00,44.6,43.5,30.08,NNW,334,1.0,7.0,96,0.00,,,0.00,Wunderground v.1.15,2016-12-05 08:34:00,
2016-12-05 00:40:00,44.6,43.5,30.08,NNW,334,1.0,7.0,96,0.00,,,0.00,Wunderground v.1.15,2016-12-05 08:40:00,
2016-12-05 00:45:00,44.6,43.5,30.07,NNW,333,1.0,7.0,96,0.00,,,0.00,Wunderground v.1.15,2016-12-05 08:45:00,
2016-12-05 00:50:00,44.5,43.4,30.07,NNW,334,1.0,7.0,96,0.00,,,0.00,Wunderground v.1.15,2016-12-05 08:50:00,
2016-12-05 00:56:00,44.3,43.2,30.08,NNW,332,1.0,7.0,96,0.00,,,0.00,Wunderground v.1.15,2016-12-05 08:56:00,
2016-12-05 01:02:00,44.5,43.4,30.09,NNW,332,2.0,7.0,96,0.00,,,0.00,Wunderground v.1.15,2016-12-05 09:02:00,
2016-12-05 01:07:00,44.7,43.6,30.08,North,350,2.0,7.0,96,0.00,,,0.00,Wunderground v.1.15,2016-12-05 09:07:00,
2016-12-05 01:12:00,44.9,43.8,30.08,North,350,1.0,7.0,96,0.00,,,0.00,Wunderground v.1.15,2016-12-05 09:12:00,
2016-12-05 01:17:00,45.2,44.1,30.08,North,350,1.0,7.0,96,0.00,,,0.00,Wunderground v.1.15,2016-12-05 09:17:00,
2016-12-05 01:22:00,45.1,44.0,30.08,North,350,1.0,7.0,96,0.00,,,0.00,Wunderground v.1.15,2016-12-05 09:22:00,
2016-12-05 01:28:00,45.4,44.3,30.08,North,350,1.0,7.0,96,0.00,,,0.00,Wunderground v.1.15,2016-12-05 09:28:00,
2016-12-05 01:33:00,45.6,44.5,30.07,North,350,1.0,7.0,96,0.00,,,0.00,Wunderground v.1.15,2016-12-05 09:33:00,
2016-12-05 01:39:00,45.7,44.6,30.08,North,349,1.0,7.0,96,0.00,,,0.00,Wunderground v.1.15,2016-12-05 09:39:00,
2016-12-05 01:55:00,45.1,44.0,30.07,NNW,343,1.0,7.0,96,0.00,,,0.00,Wunderground v.1.15,2016-12-05 09:55:00,
2016-12-05 02:00:00,44.9,43.8,30.08,NNW,335,1.0,7.0,96,0.00,,,0.00,Wunderground v.1.15,2016-12-05 10:00:00,
2016-12-05 02:06:00,44.8,43.7,30.07,NNW,335,1.0,7.0,96,0.00,,,0.00,Wunderground v.1.15,2016-12-05 10:06:00,
2016-12-05 02:11:00,44.5,43.4,30.07,NNW,335,1.0,7.0,96,0.00,,,0.00,Wunderground v.1.15,2016-12-05 10:11:00,
2016-12-05 02:16:00,44.3,43.2,30.07,NNW,335,1.0,7.0,96,0.00,,,0.00,Wunderground v.1.15,2016-12-05 10:16:00,
2016-12-05 02:21:00,44.0,42.9,30.07,NNW,335,1.0,7.0,96,0.00,,,0.00,Wunderground v.1.15,2016-12-05 10:21:00,
2016-12-05 02:26:00,43.8,42.7,30.07,NNW,335,1.0,7.0,96,0.00,,,0.00,Wunderground v.1.15,2016-12-05 10:26:00,
2016-12-05 02:32:00,43.5,42.4,30.07,NW,321,1.0,7.0,96,0.00,,,0.00,Wunderground v.1.15,2016-12-05 10:32:00,
2016-12-05 02:38:00,43.2,42.1,30.07,NW,321,1.0,7.0,96,0.00,,,0.00,Wunderground v.1.15,2016-12-05 10:38:00,
2016-12-05 02:43:00,43.0,41.9,30.07,NW,321,1.0,7.0,96,0.00,,,0.00,Wunderground v.1.15,2016-12-05 10:43:00,
2016-12-05 02:49:00,42.8,41.7,30.07,NW,321,1.0,7.0,96,0.00,,,0.00,Wunderground v.1.15,2016-12-05 10:49:00,
2016-12-05 02:54:00,42.8,41.7,30.07,NW,321,1.0,7.0,96,0.00,,,0.00,Wunderground v.1.15,2016-12-05 10:54:00,
2016-12-05 02:59:00,42.9,41.8,30.07,NW,321,1.0,7.0,96,0.00,,,0.00,Wunderground v.1.15,2016-12-05 10:59:00,
2016-12-05 03:04:00,43.2,42.4,30.07,NW,321,1.0,7.0,97,0.00,,,0.00,Wunderground v.1.15,2016-12-05 11:04:00,
2016-12-05 03:09:00,43.2,42.1,30.07,NW,321,1.0,7.0,96,0.00,,,0.00,Wunderground v.1.15,2016-12-05 11:09:00,
2016-12-05 03:14:00,43.3,42.5,30.07,NW,321,1.0,7.0,97,0.00,,,0.00,Wunderground v.1.15,2016-12-05 11:14:00,
2016-12-05 03:19:00,43.2,42.1,30.07,NW,321,1.0,7.0,96,0.00,,,0.00,Wunderground v.1.15,2016-12-05 11:19:00,
2016-12-05 03:24:00,43.2,42.1,30.06,NW,321,0.0,7.0,96,0.00,,,0.00,Wunderground v.1.15,2016-12-05 11:24:00,
2016-12-05 03:29:00,43.2,42.4,30.06,NW,321,0.0,7.0,97,0.00,,,0.00,Wunderground v.1.15,2016-12-05 11:29:00,
2016-12-05 03:35:00,43.1,42.3,30.06,NW,321,1.0,7.0,97,0.00,,,0.00,Wunderground v.1.15,2016-12-05 11:35:00,
2016-12-05 03:40:00,43.1,42.3,30.06,NW,321,1.0,7.0,97,0.00,,,0.00,Wunderground v.1.15,2016-12-05 11:40:00,
2016-12-05 03:46:00,42.8,41.7,30.06,NW,321,1.0,7.0,96,0.00,,,0.00,Wunderground v.1.15,2016-12-05 11:46:00,
2016-12-05 03:51:00,42.5,41.4,30.06,NW,321,1.0,7.0,96,0.00,,,0.00,Wunderground v.1.15,2016-12-05 11:51:00,
2016-12-05 03:56:00,42.4,41.6,30.06,NW,321,1.0,7.0,97,0.00,,,0.00,Wunderground v.1.15,2016-12-05 11:56:00,
2016-12-05 04:02:00,42.5,41.7,30.06,NW,321,1.0,7.0,97,0.00,,,0.00,Wunderground v.1.15,2016-12-05 12:02:00,
2016-12-05 04:07:00,42.7,41.9,30.06,NW,321,1.0,7.0,97,0.00,,,0.00,Wunderground v.1.15,2016-12-05 12:07:00,
2016-12-05 04:13:00,42.6,41.8,30.06,NW,321,1.0,7.0,97,0.00,,,0.00,Wunderground v.1.15,2016-12-05 12:13:00,
2016-12-05 04:18:00,42.1,41.0,30.06,NW,321,0.0,7.0,96,0.00,,,0.00,Wunderground v.1.15,2016-12-05 12:18:00,
2016-12-05 04:23:00,42.4,41.6,30.06,NW,321,0.0,7.0,97,0.00,,,0.00,Wunderground v.1.15,2016-12-05 12:23:00,
2016-12-05 04:29:00,42.4,41.6,30.06,NW,321,1.0,7.0,97,0.00,,,0.00,Wunderground v.1.15,2016-12-05 12:29:00,
2016-12-05 04:35:00,42.1,41.3,30.06,NW,321,0.0,7.0,97,0.00,,,0.00,Wunderground v.1.15,2016-12-05 12:35:00,
2016-12-05 04:40:00,41.8,41.0,30.05,NW,321,0.0,7.0,97,0.00,,,0.00,Wunderground v.1.15,2016-12-05 12:40:00,
2016-12-05 04:45:00,41.8,41.0,30.05,NW,321,0.0,7.0,97,0.00,,,0.00,Wunderground v.1.15,2016-12-05 12:45:00,
2016-12-05 04:50:00,41.7,40.9,30.05,NW,321,0.0,7.0,97,0.00,,,0.00,Wunderground v.1.15,2016-12-05 12:50:00,
2016-12-05 04:55:00,41.8,41.0,30.05,NW,321,0.0,7.0,97,0.00,,,0.00,Wunderground v.1.15,2016-12-05 12:55:00,
2016-12-05 05:00:00,41.8,41.0,30.05,NW,321,1.0,7.0,97,0.00,,,0.00,Wunderground v.1.15,2016-12-05 13:00:00,
2016-12-05 05:06:00,41.5,40.7,30.06,NW,321,1.0,7.0,97,0.00,,,0.00,Wunderground v.1.15,2016-12-05 13:06:00,
2016-12-05 05:11:00,41.5,40.7,30.05,NW,321,1.0,7.0,97,0.00,,,0.00,Wunderground v.1.15,2016-12-05 13:11:00,
2016-12-05 05:16:00,41.4,40.6,30.05,NW,321,0.0,7.0,97,0.00,,,0.00,Wunderground v.1.15,2016-12-05 13:16:00,
2016-12-05 05:21:00,41.5,40.7,30.05,NW,321,0.0,7.0,97,0.00,,,0.00,Wunderground v.1.15,2016-12-05 13:21:00,
2016-12-05 05:27:00,41.7,40.9,30.05,NW,321,0.0,7.0,97,0.00,,,0.00,Wunderground v.1.15,2016-12-05 13:27:00,
2016-12-05 05:32:00,41.7,40.9,30.05,NW,321,0.0,7.0,97,0.00,,,0.00,Wunderground v.1.15,2016-12-05 13:32:00,
2016-12-05 05:37:00,41.5,40.7,30.05,NW,321,0.0,7.0,97,0.00,,,0.00,Wunderground v.1.15,2016-12-05 13:37:00,
2016-12-05 05:43:00,41.9,41.1,30.05,NW,321,1.0,7.0,97,0.00,,,0.00,Wunderground v.1.15,2016-12-05 13:43:00,
2016-12-05 05:48:00,41.6,40.8,30.05,NW,321,1.0,7.0,97,0.00,,,0.00,Wunderground v.1.15,2016-12-05 13:48:00,
2016-12-05 05:54:00,41.8,41.0,30.05,NW,321,1.0,7.0,97,0.00,,,0.00,Wunderground v.1.15,2016-12-05 13:54:00,
2016-12-05 05:59:00,42.5,42.0,30.05,NW,321,1.0,7.0,98,0.00,,,0.00,Wunderground v.1.15,2016-12-05 13:59:00,
2016-12-05 06:04:00,41.9,41.1,30.05,NW,321,0.0,7.0,97,0.00,,,0.00,Wunderground v.1.15,2016-12-05 14:04:00,
2016-12-05 06:09:00,42.3,41.5,30.05,NW,321,0.0,7.0,97,0.00,,,0.00,Wunderground v.1.15,2016-12-05 14:09:00,
2016-12-05 06:15:00,42.6,41.8,30.05,NW,321,1.0,7.0,97,0.00,,,0.00,Wunderground v.1.15,2016-12-05 14:15:00,
2016-12-05 06:20:00,42.7,41.9,30.05,NW,321,1.0,1.0,97,0.00,,,0.00,Wunderground v.1.15,2016-12-05 14:20:00,
2016-12-05 06:25:00,43.0,42.5,30.05,NW,321,1.0,7.0,98,0.00,,,0.00,Wunderground v.1.15,2016-12-05 14:25:00,
2016-12-05 06:31:00,43.0,42.2,30.05,NW,321,0.0,7.0,97,0.00,,,0.00,Wunderground v.1.15,2016-12-05 14:31:00,
2016-12-05 06:36:00,43.6,43.1,30.05,NW,321,0.0,7.0,98,0.00,,,0.00,Wunderground v.1.15,2016-12-05 14:36:00,
2016-12-05 06:41:00,43.7,43.2,30.05,NW,321,1.0,7.0,98,0.00,,,0.00,Wunderground v.1.15,2016-12-05 14:41:00,
2016-12-05 06:47:00,43.7,42.9,30.06,NW,321,1.0,7.0,97,0.00,,,0.00,Wunderground v.1.15,2016-12-05 14:47:00,
2016-12-05 06:52:00,44.3,43.8,30.06,NW,321,1.0,7.0,98,0.00,,,0.00,Wunderground v.1.15,2016-12-05 14:52:00,
2016-12-05 06:58:00,44.6,44.1,30.06,NW,321,1.0,7.0,98,0.00,,,0.00,Wunderground v.1.15,2016-12-05 14:58:00,
2016-12-05 07:04:00,44.5,44.0,30.06,NW,321,1.0,7.0,98,0.00,,,0.00,Wunderground v.1.15,2016-12-05 15:04:00,
2016-12-05 07:09:00,44.3,43.5,30.06,NW,321,1.0,7.0,97,0.00,,,0.00,Wunderground v.1.15,2016-12-05 15:09:00,
2016-12-05 07:14:00,44.4,43.9,30.07,NW,321,1.0,7.0,98,0.00,,,0.00,Wunderground v.1.15,2016-12-05 15:14:00,
2016-12-05 07:19:00,44.3,43.5,30.07,NW,321,1.0,7.0,97,0.00,,,0.00,Wunderground v.1.15,2016-12-05 15:19:00,
2016-12-05 07:23:00,44.2,43.4,30.06,NW,321,1.0,7.0,97,0.00,,,0.00,Wunderground v.1.15,2016-12-05 15:23:00,
2016-12-05 07:29:00,43.9,43.1,30.06,NW,321,0.0,7.0,97,0.00,,,0.00,Wunderground v.1.15,2016-12-05 15:29:00,
2016-12-05 07:34:00,43.8,43.0,30.07,NW,321,0.0,7.0,97,0.00,,,0.00,Wunderground v.1.15,2016-12-05 15:34:00,
2016-12-05 07:39:00,43.7,42.9,30.07,NW,321,0.0,7.0,97,0.00,,,0.00,Wunderground v.1.15,2016-12-05 15:39:00,
2016-12-05 07:45:00,43.9,43.4,30.07,NW,321,0.0,7.0,98,0.00,,,0.00,Wunderground v.1.15,2016-12-05 15:45:00,
2016-12-05 07:50:00,43.7,42.9,30.07,NW,321,0.0,7.0,97,0.00,,,0.00,Wunderground v.1.15,2016-12-05 15:50:00,
2016-12-05 07:55:00,44.0,43.5,30.07,NW,321,1.0,7.0,98,0.00,,,0.00,Wunderground v.1.15,2016-12-05 15:55:00,
2016-12-05 08:00:00,44.1,43.6,30.07,NW,321,0.0,7.0,98,0.00,,,0.00,Wunderground v.1.15,2016-12-05 16:00:00,
2016-12-05 08:06:00,44.0,43.5,30.08,NW,321,0.0,7.0,98,0.00,,,0.00,Wunderground v.1.15,2016-12-05 16:06:00,
2016-12-05 08:12:00,44.3,43.8,30.07,NW,321,0.0,7.0,98,0.00,,,0.00,Wunderground v.1.15,2016-12-05 16:12:00,
2016-12-05 08:17:00,44.5,44.0,30.08,NW,321,0.0,7.0,98,0.00,,,0.00,Wunderground v.1.15,2016-12-05 16:17:00,
2016-12-05 08:22:00,44.8,44.3,30.08,NW,321,0.0,7.0,98,0.00,,,0.00,Wunderground v.1.15,2016-12-05 16:22:00,
2016-12-05 08:27:00,44.9,44.4,30.08,NW,321,0.0,7.0,98,0.00,,,0.00,Wunderground v.1.15,2016-12-05 16:27:00,
2016-12-05 08:32:00,45.3,44.8,30.08,NW,321,0.0,7.0,98,0.00,,,0.00,Wunderground v.1.15,2016-12-05 16:32:00,
2016-12-05 08:37:00,45.5,45.0,30.07,NW,321,0.0,7.0,98,0.00,,,0.00,Wunderground v.1.15,2016-12-05 16:37:00,
2016-12-05 08:42:00,45.9,45.4,30.07,NW,321,0.0,7.0,98,0.00,,,0.00,Wunderground v.1.15,2016-12-05 16:42:00,
2016-12-05 08:47:00,46.3,45.8,30.07,NW,321,0.0,7.0,98,0.00,,,0.00,Wunderground v.1.15,2016-12-05 16:47:00,
2016-12-05 08:52:00,46.7,46.2,30.07,NW,321,0.0,7.0,98,0.00,,,0.00,Wunderground v.1.15,2016-12-05 16:52:00,
2016-12-05 08:57:00,47.2,46.7,30.07,NW,321,0.0,7.0,98,0.00,,,0.00,Wunderground v.1.15,2016-12-05 16:57:00,
2016-12-05 09:03:00,47.6,47.1,30.07,South,180,0.0,7.0,98,0.00,,,0.00,Wunderground v.1.15,2016-12-05 17:03:00,
2016-12-05 09:08:00,48.2,47.7,30.07,South,179,0.0,7.0,98,0.00,,,0.00,Wunderground v.1.15,2016-12-05 17:08:00,
2016-12-05 09:13:00,48.8,48.3,30.07,SSW,203,0.0,7.0,98,0.00,,,0.00,Wunderground v.1.15,2016-12-05 17:13:00,
2016-12-05 09:18:00,49.3,48.8,30.07,SSW,203,0.0,7.0,98,0.00,,,0.00,Wunderground v.1.15,2016-12-05 17:18:00,
2016-12-05 09:23:00,49.7,49.2,30.07,SSW,203,0.0,7.0,98,0.00,,,0.00,Wunderground v.1.15,2016-12-05 17:23:00,
2016-12-05 09:28:00,50.0,49.5,30.07,SSW,203,0.0,7.0,98,0.00,,,0.00,Wunderground v.1.15,2016-12-05 17:28:00,
2016-12-05 09:33:00,50.0,49.2,30.08,SW,214,1.0,7.0,97,0.00,,,0.00,Wunderground v.1.15,2016-12-05 17:33:00,
2016-12-05 09:38:00,50.5,49.7,30.08,SSW,205,1.0,7.0,97,0.00,,,0.00,Wunderground v.1.15,2016-12-05 17:38:00,
2016-12-05 09:44:00,50.5,49.7,30.08,South,191,3.0,7.0,97,0.00,,,0.00,Wunderground v.1.15,2016-12-05 17:44:00,